Mineral, California
Current Conditions -  °F | °C
As of 11:54 AM on Thursday 29 Jan 2015 (Local Time) from KRBL Reporting Station
Clear Clear  
Wind Chill: 66°   Ceiling: Unl
Heat Index: 66°   Visibility: 10mi
Dew Point: 40°   Wind: 12mph
Humidity: 38%   Direction: 350°N
Pressure: 30.13"   Gusts: NA
Location:  40.35°N, 121.6°W
Report Text: KRBL 291954Z AUTO 35010KT 10SM CLR 19/04 A3013 RMK AO2 SLP202 T01890044
Loading
Personal Weather Stations






























Interactive Weather Map New forecast layout! Learn more

10-Day Weather Forecast

Advertisements
Track Severe Weather on mobile